sensor_id;sensor_type;location;lat;lon;timestamp;pressure;altitude;pressure_sealevel;temperature;humidity
16255;BME280;8235;52.198;9.904;2023-01-30T00:01:38;100757.69;;;2.59;92.74
16255;BME280;8235;52.198;9.904;2023-01-30T00:04:05;100721.81;;;2.56;92.96
16255;BME280;8235;52.198;9.904;2023-01-30T00:06:31;100712.06;;;2.60;93.01
16255;BME280;8235;52.198;9.904;2023-01-30T00:08:58;100701.59;;;2.58;92.36
16255;BME280;8235;52.198;9.904;2023-01-30T00:11:26;100698.97;;;2.58;93.11
16255;BME280;8235;52.198;9.904;2023-01-30T00:13:54;100664.75;;;2.60;92.90
16255;BME280;8235;52.198;9.904;2023-01-30T00:16:21;100648.97;;;2.60;92.52
16255;BME280;8235;52.198;9.904;2023-01-30T00:18:47;100631.34;;;2.63;92.57
16255;BME280;8235;52.198;9.904;2023-01-30T00:21:14;100641.84;;;2.63;92.11
16255;BME280;8235;52.198;9.904;2023-01-30T00:23:41;100630.44;;;2.64;92.35
16255;BME280;8235;52.198;9.904;2023-01-30T00:26:08;100640.94;;;2.64;91.64
16255;BME280;8235;52.198;9.904;2023-01-30T00:28:37;100660.16;;;2.66;91.80
16255;BME280;8235;52.198;9.904;2023-01-30T00:31:04;100663.72;;;2.65;91.90
16255;BME280;8235;52.198;9.904;2023-01-30T00:33:30;100675.84;;;2.69;92.04
16255;BME280;8235;52.198;9.904;2023-01-30T00:35:57;100689.06;;;2.68;91.72
16255;BME280;8235;52.198;9.904;2023-01-30T00:38:23;100680.31;;;2.67;92.63
16255;BME280;8235;52.198;9.904;2023-01-30T00:40:50;100683.72;;;2.69;92.18
16255;BME280;8235;52.198;9.904;2023-01-30T00:43:18;100688.97;;;2.69;91.88
16255;BME280;8235;52.198;9.904;2023-01-30T00:46:09;100693.34;;;2.70;92.00
16255;BME280;8235;52.198;9.904;2023-01-30T00:48:55;100676.59;;;2.73;92.00
16255;BME280;8235;52.198;9.904;2023-01-30T00:51:22;100662.50;;;2.75;91.78
16255;BME280;8235;52.198;9.904;2023-01-30T00:53:48;100644.06;;;2.77;91.61
16255;BME280;8235;52.198;9.904;2023-01-30T00:56:14;100615.97;;;2.77;92.32
16255;BME280;8235;52.198;9.904;2023-01-30T00:58:41;100612.53;;;2.75;92.05
16255;BME280;8235;52.198;9.904;2023-01-30T01:01:09;100594.91;;;2.79;92.82
16255;BME280;8235;52.198;9.904;2023-01-30T01:03:35;100597.63;;;2.76;93.12
16255;BME280;8235;52.198;9.904;2023-01-30T01:06:02;100590.53;;;2.78;92.76
16255;BME280;8235;52.198;9.904;2023-01-30T01:08:28;100581.75;;;2.79;92.79
16255;BME280;8235;52.198;9.904;2023-01-30T01:10:55;100575.53;;;2.82;92.90
16255;BME280;8235;52.198;9.904;2023-01-30T01:13:21;100551.81;;;2.83;93.33
16255;BME280;8235;52.198;9.904;2023-01-30T01:15:48;100535.94;;;2.86;92.74
16255;BME280;8235;52.198;9.904;2023-01-30T01:18:16;100530.69;;;2.86;92.90
16255;BME280;8235;52.198;9.904;2023-01-30T01:20:43;100534.84;;;2.92;93.46
16255;BME280;8235;52.198;9.904;2023-01-30T01:23:09;100557.66;;;2.91;93.76
16255;BME280;8235;52.198;9.904;2023-01-30T01:25:36;100536.56;;;2.93;93.34
16255;BME280;8235;52.198;9.904;2023-01-30T01:28:02;100540.00;;;2.95;93.46
16255;BME280;8235;52.198;9.904;2023-01-30T01:30:29;100550.44;;;2.98;93.56
16255;BME280;8235;52.198;9.904;2023-01-30T01:32:56;100558.19;;;3.02;93.46
16255;BME280;8235;52.198;9.904;2023-01-30T01:35:24;100544.16;;;3.02;93.33
16255;BME280;8235;52.198;9.904;2023-01-30T01:37:52;100546.78;;;3.02;93.53
16255;BME280;8235;52.198;9.904;2023-01-30T01:40:20;100532.78;;;3.01;94.14
16255;BME280;8235;52.198;9.904;2023-01-30T01:43:14;100526.56;;;3.04;93.75
16255;BME280;8235;52.198;9.904;2023-01-30T01:45:42;100509.06;;;3.03;95.28
16255;BME280;8235;52.198;9.904;2023-01-30T01:48:15;100509.81;;;3.05;94.99
16255;BME280;8235;52.198;9.904;2023-01-30T01:50:48;100485.25;;;3.06;94.57
16255;BME280;8235;52.198;9.904;2023-01-30T01:53:18;100468.53;;;3.07;94.83
16255;BME280;8235;52.198;9.904;2023-01-30T01:55:48;100463.19;;;3.10;95.67
16255;BME280;8235;52.198;9.904;2023-01-30T01:58:22;100449.22;;;3.08;95.95
16255;BME280;8235;52.198;9.904;2023-01-30T02:00:51;100428.09;;;3.09;96.45
16255;BME280;8235;52.198;9.904;2023-01-30T02:03:23;100415.75;;;3.11;95.93
16255;BME280;8235;52.198;9.904;2023-01-30T02:05:54;100421.06;;;3.10;97.02
16255;BME280;8235;52.198;9.904;2023-01-30T02:08:24;100427.34;;;3.06;97.72
16255;BME280;8235;52.198;9.904;2023-01-30T02:10:55;100444.84;;;3.07;97.96
16255;BME280;8235;52.198;9.904;2023-01-30T02:13:23;100425.59;;;3.06;97.55
16255;BME280;8235;52.198;9.904;2023-01-30T02:15:50;100408.03;;;3.07;98.23
16255;BME280;8235;52.198;9.904;2023-01-30T02:18:17;100420.31;;;3.06;98.99
16255;BME280;8235;52.198;9.904;2023-01-30T02:21:02;100415.06;;;3.06;99.43
16255;BME280;8235;52.198;9.904;2023-01-30T02:23:48;100427.34;;;3.06;99.51
16255;BME280;8235;52.198;9.904;2023-01-30T02:32:17;100420.06;;;3.14;100.00
16255;BME280;8235;52.198;9.904;2023-01-30T02:34:50;100423.50;;;3.16;100.00
16255;BME280;8235;52.198;9.904;2023-01-30T02:37:30;100412.06;;;3.17;100.00
16255;BME280;8235;52.198;9.904;2023-01-30T02:40:12;100404.84;;;3.22;100.00
16255;BME280;8235;52.198;9.904;2023-01-30T02:42:44;100391.75;;;3.21;100.00
16255;BME280;8235;52.198;9.904;2023-01-30T02:45:19;100380.19;;;3.25;100.00
16255;BME280;8235;52.198;9.904;2023-01-30T02:47:52;100401.13;;;3.28;100.00
16255;BME280;8235;52.198;9.904;2023-01-30T02:50:24;100374.53;;;3.35;100.00
16255;BME280;8235;52.198;9.904;2023-01-30T02:52:53;100362.16;;;3.37;100.00
16255;BME280;8235;52.198;9.904;2023-01-30T02:55:21;100357.75;;;3.38;99.86
16255;BME280;8235;52.198;9.904;2023-01-30T02:57:48;100361.25;;;3.38;100.00
16255;BME280;8235;52.198;9.904;2023-01-30T03:00:19;100362.97;;;3.39;100.00
16255;BME280;8235;52.198;9.904;2023-01-30T03:02:57;100344.28;;;3.45;99.85
16255;BME280;8235;52.198;9.904;2023-01-30T03:05:56;100322.31;;;3.46;100.00
16255;BME280;8235;52.198;9.904;2023-01-30T03:08:31;100342.56;;;3.44;100.00
16255;BME280;8235;52.198;9.904;2023-01-30T03:11:01;100335.47;;;3.46;100.00
16255;BME280;8235;52.198;9.904;2023-01-30T03:13:39;100331.84;;;3.49;99.95
16255;BME280;8235;52.198;9.904;2023-01-30T03:16:12;100333.56;;;3.50;99.49
16255;BME280;8235;52.198;9.904;2023-01-30T03:18:43;100341.38;;;3.53;99.47
16255;BME280;8235;52.198;9.904;2023-01-30T03:21:10;100329.06;;;3.54;100.00
16255;BME280;8235;52.198;9.904;2023-01-30T03:23:37;100334.25;;;3.55;100.00
16255;BME280;8235;52.198;9.904;2023-01-30T03:26:05;100330.72;;;3.56;100.00
16255;BME280;8235;52.198;9.904;2023-01-30T03:28:33;100326.31;;;3.57;100.00
16255;BME280;8235;52.198;9.904;2023-01-30T03:31:00;100303.31;;;3.60;100.00
16255;BME280;8235;52.198;9.904;2023-01-30T03:33:27;100320.66;;;3.66;100.00
16255;BME280;8235;52.198;9.904;2023-01-30T03:35:54;100315.09;;;3.73;100.00
16255;BME280;8235;52.198;9.904;2023-01-30T03:38:21;100315.78;;;3.77;100.00
16255;BME280;8235;52.198;9.904;2023-01-30T03:40:47;100292.94;;;3.77;100.00
16255;BME280;8235;52.198;9.904;2023-01-30T03:43:14;100290.31;;;3.77;100.00
16255;BME280;8235;52.198;9.904;2023-01-30T03:45:40;100290.25;;;3.79;100.00
16255;BME280;8235;52.198;9.904;2023-01-30T03:48:07;100281.44;;;3.80;100.00
16255;BME280;8235;52.198;9.904;2023-01-30T03:50:34;100276.84;;;3.85;100.00
16255;BME280;8235;52.198;9.904;2023-01-30T03:53:01;100281.19;;;3.86;100.00
16255;BME280;8235;52.198;9.904;2023-01-30T03:55:28;100276.91;;;3.83;100.00
16255;BME280;8235;52.198;9.904;2023-01-30T03:57:55;100287.38;;;3.85;100.00
16255;BME280;8235;52.198;9.904;2023-01-30T04:00:22;100280.47;;;3.82;100.00
16255;BME280;8235;52.198;9.904;2023-01-30T04:02:48;100270.84;;;3.81;100.00
16255;BME280;8235;52.198;9.904;2023-01-30T04:05:15;100268.25;;;3.80;100.00
16255;BME280;8235;52.198;9.904;2023-01-30T04:07:42;100272.63;;;3.81;100.00
16255;BME280;8235;52.198;9.904;2023-01-30T04:10:10;100258.47;;;3.83;100.00
16255;BME280;8235;52.198;9.904;2023-01-30T04:12:39;100255.84;;;3.83;100.00
16255;BME280;8235;52.198;9.904;2023-01-30T04:15:07;100270.66;;;3.86;100.00
16255;BME280;8235;52.198;9.904;2023-01-30T04:17:33;100255.59;;;3.90;100.00
16255;BME280;8235;52.198;9.904;2023-01-30T04:20:00;100256.31;;;3.93;100.00
16255;BME280;8235;52.198;9.904;2023-01-30T04:22:26;100245.78;;;3.93;100.00
16255;BME280;8235;52.198;9.904;2023-01-30T04:24:53;100239.50;;;3.96;100.00
16255;BME280;8235;52.198;9.904;2023-01-30T04:27:21;100244.56;;;4.00;100.00
16255;BME280;8235;52.198;9.904;2023-01-30T04:29:47;100243.06;;;3.95;100.00
16255;BME280;8235;52.198;9.904;2023-01-30T04:32:13;100236.78;;;3.97;100.00
16255;BME280;8235;52.198;9.904;2023-01-30T04:34:40;100235.09;;;3.96;100.00
16255;BME280;8235;52.198;9.904;2023-01-30T04:37:08;100241.22;;;3.97;100.00
16255;BME280;8235;52.198;9.904;2023-01-30T04:39:34;100236.72;;;3.99;100.00
16255;BME280;8235;52.198;9.904;2023-01-30T04:42:00;100229.69;;;3.99;100.00
16255;BME280;8235;52.198;9.904;2023-01-30T04:44:28;100226.13;;;4.00;100.00
16255;BME280;8235;52.198;9.904;2023-01-30T04:46:55;100227.00;;;4.01;100.00
16255;BME280;8235;52.198;9.904;2023-01-30T04:49:21;100222.50;;;4.03;100.00
16255;BME280;8235;52.198;9.904;2023-01-30T04:51:48;100226.94;;;4.02;100.00
16255;BME280;8235;52.198;9.904;2023-01-30T04:54:14;100221.66;;;4.02;100.00
16255;BME280;8235;52.198;9.904;2023-01-30T04:56:40;100211.00;;;4.05;100.00
16255;BME280;8235;52.198;9.904;2023-01-30T04:59:07;100208.28;;;4.07;100.00
16255;BME280;8235;52.198;9.904;2023-01-30T05:01:36;100200.31;;;4.08;100.00
16255;BME280;8235;52.198;9.904;2023-01-30T05:04:04;100193.22;;;4.10;100.00
16255;BME280;8235;52.198;9.904;2023-01-30T05:06:31;100204.59;;;4.11;100.00
16255;BME280;8235;52.198;9.904;2023-01-30T05:08:58;100201.88;;;4.12;100.00
16255;BME280;8235;52.198;9.904;2023-01-30T05:11:25;100200.88;;;4.15;100.00
16255;BME280;8235;52.198;9.904;2023-01-30T05:13:53;100204.38;;;4.15;100.00
16255;BME280;8235;52.198;9.904;2023-01-30T05:16:21;100180.66;;;4.15;100.00
16255;BME280;8235;52.198;9.904;2023-01-30T05:18:49;100190.16;;;4.19;100.00
16255;BME280;8235;52.198;9.904;2023-01-30T05:21:18;100190.94;;;4.22;100.00
16255;BME280;8235;52.198;9.904;2023-01-30T05:23:45;100185.59;;;4.23;100.00
16255;BME280;8235;52.198;9.904;2023-01-30T05:26:12;100188.25;;;4.23;100.00
16255;BME280;8235;52.198;9.904;2023-01-30T05:28:39;100176.03;;;4.21;100.00
16255;BME280;8235;52.198;9.904;2023-01-30T05:31:07;100179.41;;;4.24;100.00
16255;BME280;8235;52.198;9.904;2023-01-30T05:33:34;100166.22;;;4.24;100.00
16255;BME280;8235;52.198;9.904;2023-01-30T05:36:03;100165.31;;;4.25;100.00
16255;BME280;8235;52.198;9.904;2023-01-30T05:38:29;100181.06;;;4.27;100.00
16255;BME280;8235;52.198;9.904;2023-01-30T05:40:59;100180.75;;;4.33;100.00
16255;BME280;8235;52.198;9.904;2023-01-30T05:43:26;100169.16;;;4.37;100.00
16255;BME280;8235;52.198;9.904;2023-01-30T05:45:53;100174.44;;;4.37;100.00
16255;BME280;8235;52.198;9.904;2023-01-30T05:48:20;100186.63;;;4.39;100.00
16255;BME280;8235;52.198;9.904;2023-01-30T05:50:49;100183.06;;;4.40;100.00
16255;BME280;8235;52.198;9.904;2023-01-30T05:53:17;100197.88;;;4.43;100.00
16255;BME280;8235;52.198;9.904;2023-01-30T05:55:43;100199.75;;;4.41;100.00
16255;BME280;8235;52.198;9.904;2023-01-30T05:58:09;100204.09;;;4.42;100.00
16255;BME280;8235;52.198;9.904;2023-01-30T06:00:36;100204.94;;;4.42;100.00
16255;BME280;8235;52.198;9.904;2023-01-30T06:03:03;100195.13;;;4.46;100.00
16255;BME280;8235;52.198;9.904;2023-01-30T06:05:29;100209.16;;;4.46;100.00
16255;BME280;8235;52.198;9.904;2023-01-30T06:07:56;100197.69;;;4.47;100.00
16255;BME280;8235;52.198;9.904;2023-01-30T06:10:24;100203.78;;;4.48;100.00
16255;BME280;8235;52.198;9.904;2023-01-30T06:12:50;100211.69;;;4.48;100.00
16255;BME280;8235;52.198;9.904;2023-01-30T06:15:16;100206.34;;;4.49;100.00
16255;BME280;8235;52.198;9.904;2023-01-30T06:20:13;100197.59;;;4.49;100.00
16255;BME280;8235;52.198;9.904;2023-01-30T06:22:39;100194.03;;;4.50;100.00
16255;BME280;8235;52.198;9.904;2023-01-30T06:25:06;100189.63;;;4.50;100.00
16255;BME280;8235;52.198;9.904;2023-01-30T06:27:34;100194.94;;;4.49;100.00
16255;BME280;8235;52.198;9.904;2023-01-30T06:30:01;100184.28;;;4.52;100.00
16255;BME280;8235;52.198;9.904;2023-01-30T06:32:28;100176.44;;;4.50;100.00
16255;BME280;8235;52.198;9.904;2023-01-30T06:34:54;100180.00;;;4.49;100.00
16255;BME280;8235;52.198;9.904;2023-01-30T06:37:21;100181.69;;;4.50;100.00
16255;BME280;8235;52.198;9.904;2023-01-30T06:39:47;100178.22;;;4.50;100.00
16255;BME280;8235;52.198;9.904;2023-01-30T06:42:14;100190.53;;;4.49;100.00
16255;BME280;8235;52.198;9.904;2023-01-30T06:44:41;100179.00;;;4.52;100.00
16255;BME280;8235;52.198;9.904;2023-01-30T06:47:08;100189.41;;;4.55;100.00
16255;BME280;8235;52.198;9.904;2023-01-30T06:49:34;100190.97;;;4.59;100.00
16255;BME280;8235;52.198;9.904;2023-01-30T06:52:01;100205.97;;;4.59;100.00
16255;BME280;8235;52.198;9.904;2023-01-30T06:54:27;100209.25;;;4.64;100.00
16255;BME280;8235;52.198;9.904;2023-01-30T06:56:54;100217.00;;;4.67;100.00
16255;BME280;8235;52.198;9.904;2023-01-30T06:59:20;100230.91;;;4.70;100.00
16255;BME280;8235;52.198;9.904;2023-01-30T07:01:48;100212.38;;;4.72;100.00
16255;BME280;8235;52.198;9.904;2023-01-30T07:04:15;100217.56;;;4.73;100.00
16255;BME280;8235;52.198;9.904;2023-01-30T07:06:41;100214.00;;;4.74;100.00
16255;BME280;8235;52.198;9.904;2023-01-30T07:09:08;100220.22;;;4.73;100.00
16255;BME280;8235;52.198;9.904;2023-01-30T07:11:34;100211.38;;;4.74;100.00
16255;BME280;8235;52.198;9.904;2023-01-30T07:14:00;100218.28;;;4.77;100.00
16255;BME280;8235;52.198;9.904;2023-01-30T07:16:27;100215.78;;;4.74;100.00
16255;BME280;8235;52.198;9.904;2023-01-30T07:18:56;100207.03;;;4.73;100.00
16255;BME280;8235;52.198;9.904;2023-01-30T07:21:23;100214.88;;;4.75;100.00
16255;BME280;8235;52.198;9.904;2023-01-30T07:23:49;100221.00;;;4.75;100.00
16255;BME280;8235;52.198;9.904;2023-01-30T07:26:15;100219.28;;;4.74;100.00
16255;BME280;8235;52.198;9.904;2023-01-30T07:28:42;100222.84;;;4.73;100.00
16255;BME280;8235;52.198;9.904;2023-01-30T07:31:08;100226.53;;;4.69;100.00
16255;BME280;8235;52.198;9.904;2023-01-30T07:33:35;100215.22;;;4.67;100.00
16255;BME280;8235;52.198;9.904;2023-01-30T07:36:03;100209.78;;;4.70;100.00
16255;BME280;8235;52.198;9.904;2023-01-30T07:38:30;100218.50;;;4.72;100.00
16255;BME280;8235;52.198;9.904;2023-01-30T07:40:56;100217.56;;;4.73;100.00
16255;BME280;8235;52.198;9.904;2023-01-30T07:43:23;100218.44;;;4.74;100.00
16255;BME280;8235;52.198;9.904;2023-01-30T07:45:49;100222.06;;;4.71;100.00
16255;BME280;8235;52.198;9.904;2023-01-30T07:48:17;100219.44;;;4.71;99.42
16255;BME280;8235;52.198;9.904;2023-01-30T07:50:44;100222.84;;;4.73;99.58
16255;BME280;8235;52.198;9.904;2023-01-30T07:53:14;100217.56;;;4.73;98.96
16255;BME280;8235;52.198;9.904;2023-01-30T07:55:40;100222.78;;;4.75;98.33
16255;BME280;8235;52.198;9.904;2023-01-30T07:58:10;100214.00;;;4.74;98.08
16255;BME280;8235;52.198;9.904;2023-01-30T08:00:37;100218.28;;;4.77;98.01
16255;BME280;8235;52.198;9.904;2023-01-30T08:03:03;100210.38;;;4.77;97.95
16255;BME280;8235;52.198;9.904;2023-01-30T08:05:30;100211.25;;;4.77;97.49
16255;BME280;8235;52.198;9.904;2023-01-30T08:07:57;100208.59;;;4.77;97.24
16255;BME280;8235;52.198;9.904;2023-01-30T08:10:26;100204.91;;;4.81;96.97
16255;BME280;8235;52.198;9.904;2023-01-30T08:12:52;100210.97;;;4.83;97.21
16255;BME280;8235;52.198;9.904;2023-01-30T08:15:19;100209.00;;;4.87;96.61
16255;BME280;8235;52.198;9.904;2023-01-30T08:17:52;100207.09;;;4.91;96.36
16255;BME280;8235;52.198;9.904;2023-01-30T08:20:19;100207.09;;;4.91;96.02
16255;BME280;8235;52.198;9.904;2023-01-30T08:22:45;100211.44;;;4.92;95.96
16255;BME280;8235;52.198;9.904;2023-01-30T08:25:12;100208.53;;;4.98;95.41
16255;BME280;8235;52.198;9.904;2023-01-30T08:27:39;100220.72;;;5.00;94.94
16255;BME280;8235;52.198;9.904;2023-01-30T08:30:07;100231.09;;;5.03;94.68
16255;BME280;8235;52.198;9.904;2023-01-30T08:32:34;100232.75;;;5.06;94.15
16255;BME280;8235;52.198;9.904;2023-01-30T08:35:00;100238.75;;;5.09;94.05
16255;BME280;8235;52.198;9.904;2023-01-30T08:37:27;100243.88;;;5.12;93.51
16255;BME280;8235;52.198;9.904;2023-01-30T08:39:53;100246.53;;;5.12;92.92
16255;BME280;8235;52.198;9.904;2023-01-30T08:42:20;100249.97;;;5.14;92.71
16255;BME280;8235;52.198;9.904;2023-01-30T08:44:47;100248.09;;;5.16;92.37
16255;BME280;8235;52.198;9.904;2023-01-30T08:47:14;100242.81;;;5.16;91.38
16255;BME280;8235;52.198;9.904;2023-01-30T08:49:40;100236.69;;;5.16;90.99
16255;BME280;8235;52.198;9.904;2023-01-30T08:52:07;100242.03;;;5.14;89.99
16255;BME280;8235;52.198;9.904;2023-01-30T08:54:33;100244.69;;;5.14;89.54
16255;BME280;8235;52.198;9.904;2023-01-30T08:57:00;100236.69;;;5.16;89.15
16255;BME280;8235;52.198;9.904;2023-01-30T08:59:26;100254.06;;;5.20;88.75
16255;BME280;8235;52.198;9.904;2023-01-30T09:01:54;100254.91;;;5.20;88.39
16255;BME280;8235;52.198;9.904;2023-01-30T09:04:20;100255.88;;;5.19;87.97
16255;BME280;8235;52.198;9.904;2023-01-30T09:06:49;100253.13;;;5.21;87.55
16255;BME280;8235;52.198;9.904;2023-01-30T09:09:15;100246.84;;;5.23;87.25
16255;BME280;8235;52.198;9.904;2023-01-30T09:11:42;100250.50;;;5.21;86.30
16255;BME280;8235;52.198;9.904;2023-01-30T09:14:08;100258.41;;;5.21;85.85
16255;BME280;8235;52.198;9.904;2023-01-30T09:16:34;100264.28;;;5.28;85.74
16255;BME280;8235;52.198;9.904;2023-01-30T09:19:02;100240.44;;;5.29;84.78
16255;BME280;8235;52.198;9.904;2023-01-30T09:21:29;100252.72;;;5.30;84.96
16255;BME280;8235;52.198;9.904;2023-01-30T09:23:56;100253.44;;;5.34;84.51
16255;BME280;8235;52.198;9.904;2023-01-30T09:26:22;100245.25;;;5.38;84.08
16255;BME280;8235;52.198;9.904;2023-01-30T09:28:49;100246.91;;;5.41;83.87
16255;BME280;8235;52.198;9.904;2023-01-30T09:31:15;100239.69;;;5.44;83.50
16255;BME280;8235;52.198;9.904;2023-01-30T09:33:42;100261.59;;;5.46;83.48
16255;BME280;8235;52.198;9.904;2023-01-30T09:36:10;100254.63;;;5.45;82.95
16255;BME280;8235;52.198;9.904;2023-01-30T09:38:36;100256.19;;;5.49;82.60
16255;BME280;8235;52.198;9.904;2023-01-30T09:41:18;100261.47;;;5.49;82.06
16255;BME280;8235;52.198;9.904;2023-01-30T09:44:02;100259.69;;;5.50;81.57
16255;BME280;8235;52.198;9.904;2023-01-30T09:46:36;100256.19;;;5.49;81.01
16255;BME280;8235;52.198;9.904;2023-01-30T09:49:18;100251.63;;;5.53;81.01
16255;BME280;8235;52.198;9.904;2023-01-30T09:51:58;100263.78;;;5.55;80.87
16255;BME280;8235;52.198;9.904;2023-01-30T09:54:30;100254.84;;;5.58;80.24
16255;BME280;8235;52.198;9.904;2023-01-30T09:57:09;100249.50;;;5.59;79.12
16255;BME280;8235;52.198;9.904;2023-01-30T09:59:44;100259.94;;;5.63;79.40
16255;BME280;8235;52.198;9.904;2023-01-30T10:02:27;100259.78;;;5.66;79.32
16255;BME280;8235;52.198;9.904;2023-01-30T10:04:56;100248.06;;;5.71;79.24
16255;BME280;8235;52.198;9.904;2023-01-30T10:07:31;100262.13;;;5.72;79.25
16255;BME280;8235;52.198;9.904;2023-01-30T10:10:08;100252.25;;;5.75;78.87
16255;BME280;8235;52.198;9.904;2023-01-30T10:12:44;100255.75;;;5.76;78.77
16255;BME280;8235;52.198;9.904;2023-01-30T10:15:23;100261.81;;;5.78;78.94
16255;BME280;8235;52.198;9.904;2023-01-30T10:18:07;100259.16;;;5.78;78.74
16255;BME280;8235;52.198;9.904;2023-01-30T10:20:47;100259.09;;;5.79;78.98
16255;BME280;8235;52.198;9.904;2023-01-30T10:23:35;100279.44;;;5.77;78.41
16255;BME280;8235;52.198;9.904;2023-01-30T10:26:10;100246.16;;;5.73;78.16
16255;BME280;8235;52.198;9.904;2023-01-30T10:28:42;100238.50;;;5.69;78.63
16255;BME280;8235;52.198;9.904;2023-01-30T10:31:13;100252.78;;;5.65;78.72
16255;BME280;8235;52.198;9.904;2023-01-30T10:33:43;100259.72;;;5.67;78.65
16255;BME280;8235;52.198;9.904;2023-01-30T10:36:12;100254.28;;;5.70;78.92
16255;BME280;8235;52.198;9.904;2023-01-30T10:38:43;100244.63;;;5.69;78.50
16255;BME280;8235;52.198;9.904;2023-01-30T10:41:16;100235.59;;;5.73;78.80
16255;BME280;8235;52.198;9.904;2023-01-30T10:43:53;100232.97;;;5.73;78.54
16255;BME280;8235;52.198;9.904;2023-01-30T10:46:35;100222.56;;;5.70;77.55
16255;BME280;8235;52.198;9.904;2023-01-30T10:49:12;100225.13;;;5.72;77.54
16255;BME280;8235;52.198;9.904;2023-01-30T10:51:46;100228.31;;;5.78;77.52
16255;BME280;8235;52.198;9.904;2023-01-30T10:54:20;100221.72;;;5.87;77.44
16255;BME280;8235;52.198;9.904;2023-01-30T10:56:52;100208.19;;;5.93;77.19
16255;BME280;8235;52.198;9.904;2023-01-30T10:59:26;100203.53;;;5.98;76.53
16255;BME280;8235;52.198;9.904;2023-01-30T11:01:59;100219.31;;;6.00;76.23
16255;BME280;8235;52.198;9.904;2023-01-30T11:04:30;100220.09;;;6.02;76.58
16255;BME280;8235;52.198;9.904;2023-01-30T11:07:03;100227.19;;;6.01;76.67
16255;BME280;8235;52.198;9.904;2023-01-30T11:09:39;100232.47;;;6.01;77.57
16255;BME280;8235;52.198;9.904;2023-01-30T11:12:05;100224.53;;;6.01;78.48
16255;BME280;8235;52.198;9.904;2023-01-30T11:14:50;100226.31;;;6.01;79.08
16255;BME280;8235;52.198;9.904;2023-01-30T11:17:18;100228.19;;;5.99;80.04
16255;BME280;8235;52.198;9.904;2023-01-30T11:19:53;100231.69;;;5.99;80.05
16255;BME280;8235;52.198;9.904;2023-01-30T11:22:20;100234.34;;;5.99;80.16
16255;BME280;8235;52.198;9.904;2023-01-30T11:24:48;100221.13;;;5.99;80.12
16255;BME280;8235;52.198;9.904;2023-01-30T11:27:16;100215.81;;;5.99;80.12
16255;BME280;8235;52.198;9.904;2023-01-30T11:29:43;100213.97;;;6.01;80.52
16255;BME280;8235;52.198;9.904;2023-01-30T11:32:13;100196.09;;;6.06;80.12
16255;BME280;8235;52.198;9.904;2023-01-30T11:34:42;100207.19;;;6.13;80.01
16255;BME280;8235;52.198;9.904;2023-01-30T11:37:14;100207.72;;;6.19;79.81
16255;BME280;8235;52.198;9.904;2023-01-30T11:39:50;100223.28;;;6.25;79.29
16255;BME280;8235;52.198;9.904;2023-01-30T11:42:18;100210.22;;;6.22;77.24
16255;BME280;8235;52.198;9.904;2023-01-30T11:44:46;100200.41;;;6.24;77.47
16255;BME280;8235;52.198;9.904;2023-01-30T11:47:23;100196.72;;;6.27;77.71
16255;BME280;8235;52.198;9.904;2023-01-30T11:49:53;100187.69;;;6.31;77.44
16255;BME280;8235;52.198;9.904;2023-01-30T11:52:25;100185.06;;;6.31;77.49
16255;BME280;8235;52.198;9.904;2023-01-30T11:54:57;100183.41;;;6.28;77.22
16255;BME280;8235;52.198;9.904;2023-01-30T11:57:25;100178.75;;;6.34;77.68
16255;BME280;8235;52.198;9.904;2023-01-30T11:59:54;100171.59;;;6.36;77.97
16255;BME280;8235;52.198;9.904;2023-01-30T12:02:23;100161.88;;;6.36;77.48
16255;BME280;8235;52.198;9.904;2023-01-30T12:04:53;100156.50;;;6.38;77.29
16255;BME280;8235;52.198;9.904;2023-01-30T12:07:22;100181.09;;;6.40;76.85
16255;BME280;8235;52.198;9.904;2023-01-30T12:09:51;100159.75;;;6.43;76.70
16255;BME280;8235;52.198;9.904;2023-01-30T12:12:31;100157.78;;;6.46;76.25
16255;BME280;8235;52.198;9.904;2023-01-30T12:15:13;100167.84;;;6.40;76.03
16255;BME280;8235;52.198;9.904;2023-01-30T12:17:46;100167.09;;;6.38;76.22
16255;BME280;8235;52.198;9.904;2023-01-30T12:20:22;100174.16;;;6.37;76.91
16255;BME280;8235;52.198;9.904;2023-01-30T12:23:07;100179.38;;;6.39;77.17
16255;BME280;8235;52.198;9.904;2023-01-30T12:25:41;100165.53;;;6.34;77.01
16255;BME280;8235;52.198;9.904;2023-01-30T12:31:38;100155.63;;;6.21;78.35
16255;BME280;8235;52.198;9.904;2023-01-30T12:34:07;100163.00;;;6.15;77.73
16255;BME280;8235;52.198;9.904;2023-01-30T12:36:40;100159.75;;;6.10;78.98
16255;BME280;8235;52.198;9.904;2023-01-30T12:39:22;100190.94;;;6.03;79.89
16255;BME280;8235;52.198;9.904;2023-01-30T12:42:05;100210.63;;;5.98;80.43
16255;BME280;8235;52.198;9.904;2023-01-30T12:44:53;100224.59;;;5.82;81.56
16255;BME280;8235;52.198;9.904;2023-01-30T12:47:37;100224.09;;;5.74;82.15
16255;BME280;8235;52.198;9.904;2023-01-30T12:50:20;100216.94;;;5.59;83.61
16255;BME280;8235;52.198;9.904;2023-01-30T12:52:58;100222.56;;;5.53;84.46
16255;BME280;8235;52.198;9.904;2023-01-30T12:55:38;100211.28;;;5.49;85.06
16255;BME280;8235;52.198;9.904;2023-01-30T12:58:20;100218.56;;;5.44;85.33
16255;BME280;8235;52.198;9.904;2023-01-30T13:01:27;100224.47;;;5.32;85.45
16255;BME280;8235;52.198;9.904;2023-01-30T13:07:37;100240.25;;;5.15;86.36
16255;BME280;8235;52.198;9.904;2023-01-30T13:10:13;100225.75;;;5.05;86.88
16255;BME280;8235;52.198;9.904;2023-01-30T13:12:59;100234.00;;;4.99;87.52
16255;BME280;8235;52.198;9.904;2023-01-30T13:15:37;100239.59;;;4.91;88.60
16255;BME280;8235;52.198;9.904;2023-01-30T13:18:12;100251.16;;;4.88;88.60
16255;BME280;8235;52.198;9.904;2023-01-30T13:20:51;100251.16;;;4.88;89.15
16255;BME280;8235;52.198;9.904;2023-01-30T13:23:26;100251.03;;;4.92;89.56
16255;BME280;8235;52.198;9.904;2023-01-30T13:25:58;100237.91;;;4.90;90.70
16255;BME280;8235;52.198;9.904;2023-01-30T13:28:49;100248.38;;;4.92;90.67
16255;BME280;8235;52.198;9.904;2023-01-30T13:31:21;100248.31;;;4.93;91.34
16255;BME280;8235;52.198;9.904;2023-01-30T13:34:03;100246.47;;;4.95;92.07
16255;BME280;8235;52.198;9.904;2023-01-30T13:36:38;100243.75;;;4.97;92.36
16255;BME280;8235;52.198;9.904;2023-01-30T13:39:14;100234.84;;;4.99;92.70